Corwith Cramer — WTF3319 — position and weather

sailwx.info

Track history (hours):
 
Tides and Currents Weather Stations Pressure Air Temp Water Temp Dewpoint Dewpoint Depression Visibility Wind Speed Wind Dir Waves Ship Positions

Oceanographic research ship Corwith Cramer (USA)

Ship's website: http://www.sea.edu/sea2000/AboutSEA2000/cramer.htm

Detailed information on ship capabilities available from University of Delaware's Ocean Information Center.

Owner: SEA EDUCATION ASSOCIATION, WOODS HOLE, MA. More information available from US FCC via Universal Licensing System and Coast Guard Vessel Documentation Center.

Last reported at 2019-Oct-17 11:31 UTC. Time now 2019-Oct-17 18:00 UTC.
Position N 41°30' W 071°14'.

Type: . MMSI: 366724450.

Date/timePositionNaut miles runAvg speedWind from/ knotsBaromVisibWave heightAir tempDewpointWater temp
2019-Oct-17 11:31N 41°30' W 071°14'0 0.0
2019-Oct-17 09:38N 41°30' W 071°14'0 0.0
2019-Oct-17 09:25N 41°30' W 071°14'22 0.5
2019-Oct-15 12:43N 41°13' W 070°56'3 1.8
2019-Oct-15 11:11N 41°12' W 070°60'1 2.4
2019-Oct-15 10:54N 41°12' W 071°01'4 2.9
2019-Oct-15 09:38N 41°10' W 071°05'7 2.7
2019-Oct-15 06:56N 41°17' W 071°03'1 2.4
2019-Oct-15 06:30N 41°18' W 071°02'3 1.5
2019-Oct-15 04:46N 41°21' W 071°03'0 0.5
2019-Oct-15 04:29N 41°21' W 071°03'2 2.5
2019-Oct-15 03:32N 41°19' W 071°02'0 2.5
2019-Oct-15 03:30N 41°19' W 071°02'2 0.9
2019-Oct-15 01:01N 41°17' W 071°04'0 2.4
2019-Oct-15 01:00N 41°17' W 071°04'4 2.0
2019-Oct-14 23:08N 41°14' W 071°02'1 1.3
2019-Oct-14 22:34N 41°14' W 071°01'0 5.6
2019-Oct-14 22:30N 41°14' W 071°00'3 5.7
2019-Oct-14 22:00N 41°17' W 070°59'3 6.0
2019-Oct-14 21:30N 41°19' W 070°57'3 6.5
2019-Oct-14 21:00N 41°22' W 070°55'4 7.6
2019-Oct-14 20:30N 41°24' W 070°51'4 8.2
2019-Oct-14 20:00N 41°27' W 070°46'3 5.3
2019-Oct-14 19:30N 41°28' W 070°43'2 4.1
2019-Oct-14 19:00N 41°29' W 070°41'2 3.5
2019-Oct-14 18:30N 41°30' W 070°39'1 2.9
2019-Oct-14 18:00N 41°30' W 070°37'2 3.0
2019-Oct-14 17:30N 41°30' W 070°35'1 2.5
2019-Oct-14 17:00N 41°30' W 070°36'3 5.2
2019-Oct-14 16:30N 41°30' W 070°40'3 5.6
2019-Oct-14 16:00N 41°28' W 070°43'2 3.8
2019-Oct-14 15:30N 41°27' W 070°45'0 0.5
2019-Oct-14 15:00N 41°27' W 070°45'0 0.9
2019-Oct-14 14:30N 41°27' W 070°45'2 3.0
2019-Oct-14 13:59N 41°28' W 070°45'0 0.2
2019-Oct-14 13:29N 41°28' W 070°45'0 0.0
2019-Oct-14 12:59N 41°28' W 070°45'0 0.0
2019-Oct-14 12:29N 41°28' W 070°45'0 0.0
2019-Oct-14 11:38N 41°28' W 070°45'0 0.0
2019-Oct-14 11:14N 41°28' W 070°45'0 0.0
2019-Oct-14 10:56N 41°28' W 070°45'0 0.0
2019-Oct-14 10:26N 41°28' W 070°45'0 0.0
2019-Oct-14 09:59N 41°28' W 070°45'0 0.0
2019-Oct-14 09:29N 41°28' W 070°45'0 0.0
2019-Oct-14 08:59N 41°28' W 070°45'0 0.0
2019-Oct-14 08:29N 41°28' W 070°45'0 0.0
2019-Oct-14 07:59N 41°28' W 070°45'0 0.0
2019-Oct-14 07:29N 41°28' W 070°45'0 0.0
2019-Oct-14 06:59N 41°28' W 070°45'0 0.0
2019-Oct-14 06:29N 41°28' W 070°45'0 0.0
2019-Oct-14 05:59N 41°28' W 070°45'0 0.0
2019-Oct-14 05:08N 41°28' W 070°45'0 0.0
2019-Oct-14 04:47N 41°28' W 070°45'0 0.0
2019-Oct-14 04:29N 41°28' W 070°45'0 0.0
2019-Oct-14 03:59N 41°28' W 070°45'0 0.0
2019-Oct-14 03:29N 41°28' W 070°45'0 0.0
2019-Oct-14 02:59N 41°28' W 070°45'0 0.0
2019-Oct-14 02:29N 41°28' W 070°45'0 0.0
2019-Oct-14 01:59N 41°28' W 070°45'0 0.0
2019-Oct-14 01:26N 41°28' W 070°45'0 0.0
2019-Oct-14 00:56N 41°28' W 070°45'0 0.0
2019-Oct-14 00:20N 41°28' W 070°45'0 0.0
2019-Oct-13 23:59N 41°28' W 070°45'0 0.0
2019-Oct-13 23:29N 41°28' W 070°45'0 0.0
2019-Oct-13 22:59N 41°28' W 070°45'0 0.0
2019-Oct-13 22:26N 41°28' W 070°45'0 0.0
2019-Oct-13 21:38N 41°28' W 070°45'0 0.0
2019-Oct-13 21:29N 41°28' W 070°45'2 3.5
2019-Oct-13 21:00N 41°29' W 070°43'3 6.5
2019-Oct-13 20:30N 41°31' W 070°40'0 0.2
2019-Oct-13 19:59N 41°31' W 070°40'0 0.0
2019-Oct-13 19:29N 41°31' W 070°40'0 0.0
2019-Oct-13 18:59N 41°31' W 070°40'0 0.0
2019-Oct-13 18:29N 41°31' W 070°40'0 0.0
2019-Oct-13 17:59N 41°31' W 070°40'0 0.0
2019-Oct-13 17:29N 41°31' W 070°40'0 0.0
2019-Oct-13 16:59N 41°31' W 070°40'0 0.0
2019-Oct-13 16:29N 41°31' W 070°40'0 0.0
2019-Oct-13 15:59N 41°31' W 070°40'0 0.0
2019-Oct-13 15:29N 41°31' W 070°40'0 0.0
2019-Oct-13 14:59N 41°31' W 070°40'0 0.0
2019-Oct-13 14:29N 41°31' W 070°40'0 0.0
2019-Oct-13 13:59N 41°31' W 070°40'0 0.0
2019-Oct-13 13:29N 41°31' W 070°40'0 0.0
2019-Oct-13 12:59N 41°31' W 070°40'0 0.0
2019-Oct-13 12:29N 41°31' W 070°40'0 0.0
2019-Oct-13 11:59N 41°31' W 070°40'0 0.0
2019-Oct-13 11:29N 41°31' W 070°40'0 0.0
2019-Oct-13 10:59N 41°31' W 070°40'0 0.0
2019-Oct-13 10:29N 41°31' W 070°40'0 0.0
2019-Oct-13 09:59N 41°31' W 070°40'0 0.0
2019-Oct-13 09:29N 41°31' W 070°40'0 0.0
2019-Oct-13 08:59N 41°31' W 070°40'0 0.0
2019-Oct-13 08:29N 41°31' W 070°40'0 0.0
2019-Oct-13 07:59N 41°31' W 070°40'0 0.0
2019-Oct-13 07:29N 41°31' W 070°40'0 0.0
2019-Oct-13 06:59N 41°31' W 070°40'0 0.0
2019-Oct-13 06:29N 41°31' W 070°40'0 0.0
2019-Oct-13 05:59N 41°31' W 070°40'0 0.0
2019-Oct-13 05:29N 41°31' W 070°40'0 0.0
2019-Oct-13 04:59N 41°31' W 070°40'0 0.0
2019-Oct-13 04:29N 41°31' W 070°40'0 0.0
2019-Oct-13 03:59N 41°31' W 070°40'0 0.0
2019-Oct-13 03:29N 41°31' W 070°40'0 0.0
2019-Oct-13 02:59N 41°31' W 070°40'0 0.0
2019-Oct-13 02:29N 41°31' W 070°40'0 0.0
2019-Oct-13 01:59N 41°31' W 070°40'0 0.0
2019-Oct-13 01:29N 41°31' W 070°40'0 0.0
2019-Oct-13 00:59N 41°31' W 070°40'0 0.0
2019-Oct-13 00:29N 41°31' W 070°40'0 0.0
2019-Oct-12 23:59N 41°31' W 070°40'0 0.0
2019-Oct-12 23:29N 41°31' W 070°40'0 0.0
2019-Oct-12 22:59N 41°31' W 070°40'0 0.0
2019-Oct-12 22:29N 41°31' W 070°40'0 0.0
2019-Oct-12 21:59N 41°31' W 070°40'0 0.0
2019-Oct-12 21:29N 41°31' W 070°40'0 0.0
2019-Oct-12 20:59N 41°31' W 070°40'0 0.0
2019-Oct-12 20:29N 41°31' W 070°40'0 0.0
2019-Oct-12 19:59N 41°31' W 070°40'0 0.0
2019-Oct-12 19:29N 41°31' W 070°40'0 0.0
2019-Oct-12 18:59N 41°31' W 070°40'0 0.0
2019-Oct-12 18:29N 41°31' W 070°40'0 0.0
2019-Oct-12 17:59N 41°31' W 070°40'0 0.0
2019-Oct-12 17:29N 41°31' W 070°40'0 0.0
2019-Oct-12 16:59N 41°31' W 070°40'0 0.0
2019-Oct-12 16:29N 41°31' W 070°40'0 0.0
2019-Oct-12 15:59N 41°31' W 070°40'0 0.0
2019-Oct-12 15:29N 41°31' W 070°40'0 0.0
2019-Oct-12 14:59N 41°31' W 070°40'0 0.0
2019-Oct-12 14:28N 41°31' W 070°40'0 0.0
2019-Oct-12 13:58N 41°31' W 070°40'0 0.0
2019-Oct-12 13:28N 41°31' W 070°40'0 0.0
2019-Oct-12 12:58N 41°31' W 070°40'0 0.0
2019-Oct-12 12:28N 41°31' W 070°40'0 0.0
2019-Oct-12 11:58N 41°31' W 070°40'0 0.0
2019-Oct-12 11:28N 41°31' W 070°40'0 0.0
2019-Oct-12 10:58N 41°31' W 070°40'0 0.0
2019-Oct-12 10:28N 41°31' W 070°40'0 0.0
2019-Oct-12 09:58N 41°31' W 070°40'0 0.0
2019-Oct-12 09:28N 41°31' W 070°40'0 0.0
2019-Oct-12 08:58N 41°31' W 070°40'0 0.0
2019-Oct-12 08:28N 41°31' W 070°40'0 0.0
2019-Oct-12 07:58N 41°31' W 070°40'0 0.0
2019-Oct-12 07:28N 41°31' W 070°40'0 0.0
2019-Oct-12 06:58N 41°31' W 070°40'0 0.0
2019-Oct-12 06:28N 41°31' W 070°40'0 0.0
2019-Oct-12 05:58N 41°31' W 070°40'0 0.0
2019-Oct-12 05:28N 41°31' W 070°40'0 0.0
2019-Oct-12 04:58N 41°31' W 070°40'0 0.0
2019-Oct-12 04:28N 41°31' W 070°40'0 0.0
2019-Oct-12 03:58N 41°31' W 070°40'0 0.0
2019-Oct-12 03:28N 41°31' W 070°40'0 0.0
2019-Oct-12 02:58N 41°31' W 070°40'0 0.0
2019-Oct-12 02:28N 41°31' W 070°40'0 0.0
2019-Oct-12 01:58N 41°31' W 070°40'0 0.0
2019-Oct-12 01:28N 41°31' W 070°40'0 0.0
2019-Oct-12 00:58N 41°31' W 070°40'0 0.0
2019-Oct-12 00:28N 41°31' W 070°40'0 0.0
2019-Oct-11 23:58N 41°31' W 070°40'0 0.0
2019-Oct-11 23:28N 41°31' W 070°40'0 0.0
2019-Oct-11 22:58N 41°31' W 070°40'0 0.0
2019-Oct-11 22:28N 41°31' W 070°40'0 0.0
2019-Oct-11 21:58N 41°31' W 070°40'0 0.0
2019-Oct-11 21:28N 41°31' W 070°40'0 0.0
2019-Oct-11 20:58N 41°31' W 070°40'0 0.0
2019-Oct-11 20:28N 41°31' W 070°40'0 0.0
2019-Oct-11 19:58N 41°31' W 070°40'0 0.0
2019-Oct-11 19:28N 41°31' W 070°40'0 0.0
2019-Oct-11 18:58N 41°31' W 070°40'0 0.0
2019-Oct-11 18:28N 41°31' W 070°40'0 0.0
2019-Oct-11 17:58N 41°31' W 070°40'0 0.0
2019-Oct-11 17:28N 41°31' W 070°40'0 0.0
2019-Oct-11 16:58N 41°31' W 070°40'0 0.0
2019-Oct-11 16:28N 41°31' W 070°40'0 0.0
2019-Oct-11 15:58N 41°31' W 070°40'0 0.0
2019-Oct-11 15:28N 41°31' W 070°40'0 0.0
2019-Oct-11 14:58N 41°31' W 070°40'0 0.0
2019-Oct-11 14:28N 41°31' W 070°40'0 0.0
2019-Oct-11 13:58N 41°31' W 070°40'0 0.0
2019-Oct-11 13:28N 41°31' W 070°40'0 0.0
2019-Oct-11 12:58N 41°31' W 070°40'0 0.0
2019-Oct-11 12:28N 41°31' W 070°40'0 0.0
2019-Oct-11 11:58N 41°31' W 070°40'0 0.0
2019-Oct-11 11:28N 41°31' W 070°40'0 0.0
2019-Oct-11 10:58N 41°31' W 070°40'0 0.0
2019-Oct-11 10:28N 41°31' W 070°40'0 0.0
2019-Oct-11 09:58N 41°31' W 070°40'0 0.0
2019-Oct-11 09:28N 41°31' W 070°40'0 0.0
2019-Oct-11 08:58N 41°31' W 070°40'0 0.0
2019-Oct-11 08:28N 41°31' W 070°40'0 0.0
2019-Oct-11 08:01N 41°31' W 070°40'0 0.0
2019-Oct-11 07:31N 41°31' W 070°40'0 0.0
2019-Oct-11 07:01N 41°31' W 070°40'0 0.0
2019-Oct-11 06:30N 41°31' W 070°40'0 0.0
2019-Oct-11 06:00N 41°31' W 070°40'0 0.0
2019-Oct-11 05:30N 41°31' W 070°40'0 0.0
2019-Oct-11 05:00N 41°31' W 070°40'0 0.0
2019-Oct-11 04:30N 41°31' W 070°40'0 0.0
2019-Oct-11 04:00N 41°31' W 070°40'0 0.0
2019-Oct-11 03:30N 41°31' W 070°40'0 0.0
2019-Oct-11 03:00N 41°31' W 070°40'0 0.0
2019-Oct-11 02:30N 41°31' W 070°40'0 0.0
2019-Oct-11 02:00N 41°31' W 070°40'0 0.0
2019-Oct-11 01:30N 41°31' W 070°40'0 0.0
2019-Oct-11 01:00N 41°31' W 070°40'0 0.0
2019-Oct-11 00:30N 41°31' W 070°40'0 0.0
2019-Oct-11 00:00N 41°31' W 070°40'0 0.0
2019-Oct-10 23:30N 41°31' W 070°40'0 0.0
2019-Oct-10 23:00N 41°31' W 070°40'0 0.0
2019-Oct-10 22:30N 41°31' W 070°40'0 0.0
2019-Oct-10 22:00N 41°31' W 070°40'0 0.0
2019-Oct-10 21:30N 41°31' W 070°40'0 0.0
2019-Oct-10 21:00N 41°31' W 070°40'0 0.0
2019-Oct-10 20:30N 41°31' W 070°40'0 0.0
2019-Oct-10 20:00N 41°31' W 070°40'0 0.0
2019-Oct-10 19:30N 41°31' W 070°40'0 0.0
2019-Oct-10 19:00N 41°31' W 070°40'0 0.0
2019-Oct-10 18:30N 41°31' W 070°40'0 0.0
2019-Oct-10 18:00N 41°31' W 070°40'0 0.0
2019-Oct-10 17:30N 41°31' W 070°40'0 0.0
2019-Oct-10 17:00N 41°31' W 070°40'0 0.0
2019-Oct-10 16:30N 41°31' W 070°40'0 0.0
2019-Oct-10 16:00N 41°31' W 070°40'0 0.0
2019-Oct-10 15:30N 41°31' W 070°40'0 0.0
2019-Oct-10 15:00N 41°31' W 070°40'0 0.0
2019-Oct-10 14:30N 41°31' W 070°40'0 0.0
2019-Oct-10 14:00N 41°31' W 070°40'0 0.0
2019-Oct-10 13:30N 41°31' W 070°40'0 0.0
2019-Oct-10 13:00N 41°31' W 070°40'0 0.0
2019-Oct-10 12:30N 41°31' W 070°40'0 0.0
2019-Oct-10 12:00N 41°31' W 070°40'0 0.0
2019-Oct-10 11:30N 41°31' W 070°40'0 0.0
2019-Oct-10 11:00N 41°31' W 070°40'0 0.0
2019-Oct-10 10:30N 41°31' W 070°40'0 0.0
2019-Oct-10 10:00N 41°31' W 070°40'0 0.0
2019-Oct-10 09:30N 41°31' W 070°40'0 0.0
2019-Oct-10 09:00N 41°31' W 070°40'0 0.0
2019-Oct-10 08:30N 41°31' W 070°40'0 0.0
2019-Oct-10 08:00N 41°31' W 070°40'0 0.0
2019-Oct-10 07:30N 41°31' W 070°40'0 0.0
2019-Oct-10 07:00N 41°31' W 070°40'0 0.0
2019-Oct-10 06:30N 41°31' W 070°40'0 0.0
2019-Oct-10 06:00N 41°31' W 070°40'0 0.0
2019-Oct-10 05:30N 41°31' W 070°40'0 0.0
2019-Oct-10 05:00N 41°31' W 070°40'0 0.0
2019-Oct-10 04:30N 41°31' W 070°40'0 0.0
2019-Oct-10 04:00N 41°31' W 070°40'0 0.0
2019-Oct-10 03:30N 41°31' W 070°40'0 0.0
2019-Oct-10 03:00N 41°31' W 070°40'0 0.0
2019-Oct-10 02:30N 41°31' W 070°40'0 0.0
2019-Oct-10 02:00N 41°31' W 070°40'0 0.0
2019-Oct-10 01:30N 41°31' W 070°40'0 0.0
2019-Oct-10 01:00N 41°31' W 070°40'0 0.0
2019-Oct-10 00:30N 41°31' W 070°40'0 0.0
2019-Oct-10 00:00N 41°31' W 070°40'0 0.0
2019-Oct-09 23:30N 41°31' W 070°40'0 0.0
2019-Oct-09 22:59N 41°31' W 070°40'0 0.0
2019-Oct-09 22:29N 41°31' W 070°40'0 0.0
2019-Oct-09 21:59N 41°31' W 070°40'0 0.0
2019-Oct-09 21:29N 41°31' W 070°40'0 0.0
2019-Oct-09 20:59N 41°31' W 070°40'0 0.0
2019-Oct-09 20:29N 41°31' W 070°40'0 0.0
2019-Oct-09 19:59N 41°31' W 070°40'0 0.0
2019-Oct-09 19:29N 41°31' W 070°40'0 0.0
2019-Oct-09 18:59N 41°31' W 070°40'0 0.0
2019-Oct-09 18:29N 41°31' W 070°40'0 0.0
2019-Oct-09 17:59N 41°31' W 070°40'0 0.0
2019-Oct-09 17:29N 41°31' W 070°40'0 0.0
2019-Oct-09 16:59N 41°31' W 070°40'0 0.0
2019-Oct-09 16:29N 41°31' W 070°40'0 0.0
2019-Oct-09 15:59N 41°31' W 070°40'0 0.0
2019-Oct-09 15:29N 41°31' W 070°40'0 0.0
2019-Oct-09 14:59N 41°31' W 070°40'0 0.0
2019-Oct-09 14:29N 41°31' W 070°40'0 0.0
2019-Oct-09 13:59N 41°31' W 070°40'0 0.0
2019-Oct-09 13:29N 41°31' W 070°40'0 0.0
2019-Oct-09 12:59N 41°31' W 070°40'0 0.0
2019-Oct-09 12:29N 41°31' W 070°40'0 0.0
2019-Oct-09 11:59N 41°31' W 070°40'0 0.0
2019-Oct-09 11:29N 41°31' W 070°40'0 0.0
2019-Oct-09 10:59N 41°31' W 070°40'0 0.0
2019-Oct-09 10:29N 41°31' W 070°40'0 0.0
2019-Oct-09 09:59N 41°31' W 070°40'0 0.0
2019-Oct-09 09:29N 41°31' W 070°40'0 0.0
2019-Oct-09 08:59N 41°31' W 070°40'0 0.0
2019-Oct-09 08:29N 41°31' W 070°40'0 0.0
2019-Oct-09 07:59N 41°31' W 070°40'0 0.0
2019-Oct-09 07:29N 41°31' W 070°40'0 0.0
2019-Oct-09 06:59N 41°31' W 070°40'0 0.0
2019-Oct-09 06:29N 41°31' W 070°40'0 0.0
2019-Oct-09 05:59N 41°31' W 070°40'0 0.0
2019-Oct-09 05:29N 41°31' W 070°40'0 0.0
2019-Oct-09 04:59N 41°31' W 070°40'0 0.0
2019-Oct-09 04:29N 41°31' W 070°40'0 0.0
2019-Oct-09 03:59N 41°31' W 070°40'0 0.0
2019-Oct-09 03:29N 41°31' W 070°40'0 0.0
2019-Oct-09 02:59N 41°31' W 070°40'0 0.0
2019-Oct-09 02:29N 41°31' W 070°40'0 0.0
2019-Oct-09 01:59N 41°31' W 070°40'0 0.0
2019-Oct-09 01:29N 41°31' W 070°40'0 0.0
2019-Oct-09 00:59N 41°31' W 070°40'0 0.0
2019-Oct-09 00:29N 41°31' W 070°40'0 0.0
2019-Oct-08 23:59N 41°31' W 070°40'0 0.0
2019-Oct-08 23:29N 41°31' W 070°40'0 0.0
2019-Oct-08 22:59N 41°31' W 070°40'0 0.0
2019-Oct-08 22:29N 41°31' W 070°40'0 0.0
2019-Oct-08 21:59N 41°31' W 070°40'0 0.0
2019-Oct-08 21:29N 41°31' W 070°40'0 0.0
2019-Oct-08 20:59N 41°31' W 070°40'0 0.0
2019-Oct-08 20:29N 41°31' W 070°40'0 0.0
2019-Oct-08 19:59N 41°31' W 070°40'0 0.0
2019-Oct-08 19:29N 41°31' W 070°40'0 0.0
2019-Oct-08 18:59N 41°31' W 070°40'0 0.0
2019-Oct-08 18:29N 41°31' W 070°40'0 0.0
2019-Oct-08 17:59N 41°31' W 070°40'0 0.0
2019-Oct-08 17:29N 41°31' W 070°40'0 0.0
2019-Oct-08 16:59N 41°31' W 070°40'0 0.0
2019-Oct-08 16:29N 41°31' W 070°40'0 0.0
2019-Oct-08 15:59N 41°31' W 070°40'0 0.0
2019-Oct-08 15:29N 41°31' W 070°40'0 0.0
2019-Oct-08 14:58N 41°31' W 070°40'0 0.0
2019-Oct-08 14:28N 41°31' W 070°40'0 0.0
2019-Oct-08 13:58N 41°31' W 070°40'0 0.0
2019-Oct-08 13:28N 41°31' W 070°40'0 0.0
2019-Oct-08 12:58N 41°31' W 070°40'0 0.0
2019-Oct-08 12:28N 41°31' W 070°40'0 0.0
2019-Oct-08 11:58N 41°31' W 070°40'0 0.0
2019-Oct-08 11:28N 41°31' W 070°40'0 0.0
2019-Oct-08 10:58N 41°31' W 070°40'0 0.0
2019-Oct-08 10:28N 41°31' W 070°40'0 0.0
2019-Oct-08 09:58N 41°31' W 070°40'0 0.0
2019-Oct-08 09:28N 41°31' W 070°40'0 0.0
2019-Oct-08 08:58N 41°31' W 070°40'0 0.0
2019-Oct-08 08:28N 41°31' W 070°40'0 0.0
2019-Oct-08 07:58N 41°31' W 070°40'0 0.0
2019-Oct-08 07:28N 41°31' W 070°40'0 0.0
2019-Oct-08 06:58N 41°31' W 070°40'0 0.0
2019-Oct-08 06:28N 41°31' W 070°40'0 0.0
2019-Oct-08 05:58N 41°31' W 070°40'0 0.0
2019-Oct-08 05:28N 41°31' W 070°40'0 0.0
2019-Oct-08 04:58N 41°31' W 070°40'0 0.0
2019-Oct-08 04:28N 41°31' W 070°40'0 0.0
2019-Oct-08 03:58N 41°31' W 070°40'0 0.0
2019-Oct-08 03:28N 41°31' W 070°40'0 0.0
2019-Oct-08 02:58N 41°31' W 070°40'0 0.0
2019-Oct-08 02:28N 41°31' W 070°40'0 0.0
2019-Oct-08 01:58N 41°31' W 070°40'0 0.0
2019-Oct-08 01:28N 41°31' W 070°40'0 0.0
2019-Oct-08 00:58N 41°31' W 070°40'0 0.0
2019-Oct-08 00:28N 41°31' W 070°40'0 0.0
2019-Oct-07 23:58N 41°31' W 070°40'0 0.0
2019-Oct-07 23:28N 41°31' W 070°40'0 0.0
2019-Oct-07 22:58N 41°31' W 070°40'0 0.0
2019-Oct-07 22:28N 41°31' W 070°40'0 0.0
2019-Oct-07 21:58N 41°31' W 070°40'0 0.0
2019-Oct-07 21:28N 41°31' W 070°40'0 0.0
2019-Oct-07 20:58N 41°31' W 070°40'0 0.0
2019-Oct-07 20:28N 41°31' W 070°40'0 0.0
2019-Oct-07 19:58N 41°31' W 070°40'0 0.0
2019-Oct-07 19:28N 41°31' W 070°40'0 0.0
2019-Oct-07 18:58N 41°31' W 070°40'0 0.0
2019-Oct-07 18:28N 41°31' W 070°40'0 0.0
2019-Oct-07 17:58N 41°31' W 070°40'0 0.0
2019-Oct-07 17:28N 41°31' W 070°40'0 0.0
2019-Oct-07 16:58N 41°31' W 070°40'0 0.0
2019-Oct-07 16:28N 41°31' W 070°40'0 0.0
2019-Oct-07 15:58N 41°31' W 070°40'0 0.0
2019-Oct-07 15:28N 41°31' W 070°40'0 0.0
2019-Oct-07 14:58N 41°31' W 070°40'0 0.0
2019-Oct-07 14:28N 41°31' W 070°40'0 0.0
2019-Oct-07 13:58N 41°31' W 070°40'0 0.0
2019-Oct-07 13:28N 41°31' W 070°40'0 0.0
2019-Oct-07 12:58N 41°31' W 070°40'0 0.0
2019-Oct-07 12:28N 41°31' W 070°40'0 0.0
2019-Oct-07 11:58N 41°31' W 070°40'  
Track history (hours):
 
Tides and Currents Weather Stations Pressure Air Temp Water Temp Dewpoint Dewpoint Depression Visibility Wind Speed Wind Dir Waves Ship Positions

Oceanographic research ship Corwith Cramer (USA)

Ship's website: http://www.sea.edu/sea2000/AboutSEA2000/cramer.htm

Detailed information on ship capabilities available from University of Delaware's Ocean Information Center.

Owner: SEA EDUCATION ASSOCIATION, WOODS HOLE, MA. More information available from US FCC via Universal Licensing System and Coast Guard Vessel Documentation Center.

Last reported at 2019-Oct-17 11:31 UTC. Time now 2019-Oct-17 18:00 UTC.
Position N 41°30' W 071°14'.

Type: . MMSI: 366724450.

Date/timePositionNaut miles runAvg speedWind from/ knotsBaromVisibWave heightAir tempDewpointWater temp
2019-Oct-17 11:31N 41°30' W 071°14'0 0.0
2019-Oct-17 09:38N 41°30' W 071°14'0 0.0
2019-Oct-17 09:25N 41°30' W 071°14'22 0.5
2019-Oct-15 12:43N 41°13' W 070°56'3 1.8
2019-Oct-15 11:11N 41°12' W 070°60'1 2.4
2019-Oct-15 10:54N 41°12' W 071°01'4 2.9
2019-Oct-15 09:38N 41°10' W 071°05'7 2.7
2019-Oct-15 06:56N 41°17' W 071°03'1 2.4
2019-Oct-15 06:30N 41°18' W 071°02'3 1.5
2019-Oct-15 04:46N 41°21' W 071°03'0 0.5
2019-Oct-15 04:29N 41°21' W 071°03'2 2.5
2019-Oct-15 03:32N 41°19' W 071°02'0 2.5
2019-Oct-15 03:30N 41°19' W 071°02'2 0.9
2019-Oct-15 01:01N 41°17' W 071°04'0 2.4
2019-Oct-15 01:00N 41°17' W 071°04'4 2.0
2019-Oct-14 23:08N 41°14' W 071°02'1 1.3
2019-Oct-14 22:34N 41°14' W 071°01'0 5.6
2019-Oct-14 22:30N 41°14' W 071°00'3 5.7
2019-Oct-14 22:00N 41°17' W 070°59'3 6.0
2019-Oct-14 21:30N 41°19' W 070°57'3 6.5
2019-Oct-14 21:00N 41°22' W 070°55'4 7.6
2019-Oct-14 20:30N 41°24' W 070°51'4 8.2
2019-Oct-14 20:00N 41°27' W 070°46'3 5.3
2019-Oct-14 19:30N 41°28' W 070°43'2 4.1
2019-Oct-14 19:00N 41°29' W 070°41'2 3.5
2019-Oct-14 18:30N 41°30' W 070°39'1 2.9
2019-Oct-14 18:00N 41°30' W 070°37'2 3.0
2019-Oct-14 17:30N 41°30' W 070°35'1 2.5
2019-Oct-14 17:00N 41°30' W 070°36'3 5.2
2019-Oct-14 16:30N 41°30' W 070°40'3 5.6
2019-Oct-14 16:00N 41°28' W 070°43'2 3.8
2019-Oct-14 15:30N 41°27' W 070°45'0 0.5
2019-Oct-14 15:00N 41°27' W 070°45'0 0.9
2019-Oct-14 14:30N 41°27' W 070°45'2 3.0
2019-Oct-14 13:59N 41°28' W 070°45'0 0.2
2019-Oct-14 13:29N 41°28' W 070°45'0 0.0
2019-Oct-14 12:59N 41°28' W 070°45'0 0.0
2019-Oct-14 12:29N 41°28' W 070°45'0 0.0
2019-Oct-14 11:38N 41°28' W 070°45'0 0.0
2019-Oct-14 11:14N 41°28' W 070°45'0 0.0
2019-Oct-14 10:56N 41°28' W 070°45'0 0.0
2019-Oct-14 10:26N 41°28' W 070°45'0 0.0
2019-Oct-14 09:59N 41°28' W 070°45'0 0.0
2019-Oct-14 09:29N 41°28' W 070°45'0 0.0
2019-Oct-14 08:59N 41°28' W 070°45'0 0.0
2019-Oct-14 08:29N 41°28' W 070°45'0 0.0
2019-Oct-14 07:59N 41°28' W 070°45'0 0.0
2019-Oct-14 07:29N 41°28' W 070°45'0 0.0
2019-Oct-14 06:59N 41°28' W 070°45'0 0.0
2019-Oct-14 06:29N 41°28' W 070°45'0 0.0
2019-Oct-14 05:59N 41°28' W 070°45'0 0.0
2019-Oct-14 05:08N 41°28' W 070°45'0 0.0
2019-Oct-14 04:47N 41°28' W 070°45'0 0.0
2019-Oct-14 04:29N 41°28' W 070°45'0 0.0
2019-Oct-14 03:59N 41°28' W 070°45'0 0.0
2019-Oct-14 03:29N 41°28' W 070°45'0 0.0
2019-Oct-14 02:59N 41°28' W 070°45'0 0.0
2019-Oct-14 02:29N 41°28' W 070°45'0 0.0
2019-Oct-14 01:59N 41°28' W 070°45'0 0.0
2019-Oct-14 01:26N 41°28' W 070°45'0 0.0
2019-Oct-14 00:56N 41°28' W 070°45'0 0.0
2019-Oct-14 00:20N 41°28' W 070°45'0 0.0
2019-Oct-13 23:59N 41°28' W 070°45'0 0.0
2019-Oct-13 23:29N 41°28' W 070°45'0 0.0
2019-Oct-13 22:59N 41°28' W 070°45'0 0.0
2019-Oct-13 22:26N 41°28' W 070°45'0 0.0
2019-Oct-13 21:38N 41°28' W 070°45'0 0.0
2019-Oct-13 21:29N 41°28' W 070°45'2 3.5
2019-Oct-13 21:00N 41°29' W 070°43'3 6.5
2019-Oct-13 20:30N 41°31' W 070°40'0 0.2
2019-Oct-13 19:59N 41°31' W 070°40'0 0.0
2019-Oct-13 19:29N 41°31' W 070°40'0 0.0
2019-Oct-13 18:59N 41°31' W 070°40'0 0.0
2019-Oct-13 18:29N 41°31' W 070°40'0 0.0
2019-Oct-13 17:59N 41°31' W 070°40'0 0.0
2019-Oct-13 17:29N 41°31' W 070°40'0 0.0
2019-Oct-13 16:59N 41°31' W 070°40'0 0.0
2019-Oct-13 16:29N 41°31' W 070°40'0 0.0
2019-Oct-13 15:59N 41°31' W 070°40'0 0.0
2019-Oct-13 15:29N 41°31' W 070°40'0 0.0
2019-Oct-13 14:59N 41°31' W 070°40'0 0.0
2019-Oct-13 14:29N 41°31' W 070°40'0 0.0
2019-Oct-13 13:59N 41°31' W 070°40'0 0.0
2019-Oct-13 13:29N 41°31' W 070°40'0 0.0
2019-Oct-13 12:59N 41°31' W 070°40'0 0.0
2019-Oct-13 12:29N 41°31' W 070°40'0 0.0
2019-Oct-13 11:59N 41°31' W 070°40'0 0.0
2019-Oct-13 11:29N 41°31' W 070°40'0 0.0
2019-Oct-13 10:59N 41°31' W 070°40'0 0.0
2019-Oct-13 10:29N 41°31' W 070°40'0 0.0
2019-Oct-13 09:59N 41°31' W 070°40'0 0.0
2019-Oct-13 09:29N 41°31' W 070°40'0 0.0
2019-Oct-13 08:59N 41°31' W 070°40'0 0.0
2019-Oct-13 08:29N 41°31' W 070°40'0 0.0
2019-Oct-13 07:59N 41°31' W 070°40'0 0.0
2019-Oct-13 07:29N 41°31' W 070°40'0 0.0
2019-Oct-13 06:59N 41°31' W 070°40'0 0.0
2019-Oct-13 06:29N 41°31' W 070°40'0 0.0
2019-Oct-13 05:59N 41°31' W 070°40'0 0.0
2019-Oct-13 05:29N 41°31' W 070°40'0 0.0
2019-Oct-13 04:59N 41°31' W 070°40'0 0.0
2019-Oct-13 04:29N 41°31' W 070°40'0 0.0
2019-Oct-13 03:59N 41°31' W 070°40'0 0.0
2019-Oct-13 03:29N 41°31' W 070°40'0 0.0
2019-Oct-13 02:59N 41°31' W 070°40'0 0.0
2019-Oct-13 02:29N 41°31' W 070°40'0 0.0
2019-Oct-13 01:59N 41°31' W 070°40'0 0.0
2019-Oct-13 01:29N 41°31' W 070°40'0 0.0
2019-Oct-13 00:59N 41°31' W 070°40'0 0.0
2019-Oct-13 00:29N 41°31' W 070°40'0 0.0
2019-Oct-12 23:59N 41°31' W 070°40'0 0.0
2019-Oct-12 23:29N 41°31' W 070°40'0 0.0
2019-Oct-12 22:59N 41°31' W 070°40'0 0.0
2019-Oct-12 22:29N 41°31' W 070°40'0 0.0
2019-Oct-12 21:59N 41°31' W 070°40'0 0.0
2019-Oct-12 21:29N 41°31' W 070°40'0 0.0
2019-Oct-12 20:59N 41°31' W 070°40'0 0.0
2019-Oct-12 20:29N 41°31' W 070°40'0 0.0
2019-Oct-12 19:59N 41°31' W 070°40'0 0.0
2019-Oct-12 19:29N 41°31' W 070°40'0 0.0
2019-Oct-12 18:59N 41°31' W 070°40'0 0.0
2019-Oct-12 18:29N 41°31' W 070°40'0 0.0
2019-Oct-12 17:59N 41°31' W 070°40'0 0.0
2019-Oct-12 17:29N 41°31' W 070°40'0 0.0
2019-Oct-12 16:59N 41°31' W 070°40'0 0.0
2019-Oct-12 16:29N 41°31' W 070°40'0 0.0
2019-Oct-12 15:59N 41°31' W 070°40'0 0.0
2019-Oct-12 15:29N 41°31' W 070°40'0 0.0
2019-Oct-12 14:59N 41°31' W 070°40'0 0.0
2019-Oct-12 14:28N 41°31' W 070°40'0 0.0
2019-Oct-12 13:58N 41°31' W 070°40'0 0.0
2019-Oct-12 13:28N 41°31' W 070°40'0 0.0
2019-Oct-12 12:58N 41°31' W 070°40'0 0.0
2019-Oct-12 12:28N 41°31' W 070°40'0 0.0
2019-Oct-12 11:58N 41°31' W 070°40'0 0.0
2019-Oct-12 11:28N 41°31' W 070°40'0 0.0
2019-Oct-12 10:58N 41°31' W 070°40'0 0.0
2019-Oct-12 10:28N 41°31' W 070°40'0 0.0
2019-Oct-12 09:58N 41°31' W 070°40'0 0.0
2019-Oct-12 09:28N 41°31' W 070°40'0 0.0
2019-Oct-12 08:58N 41°31' W 070°40'0 0.0
2019-Oct-12 08:28N 41°31' W 070°40'0 0.0
2019-Oct-12 07:58N 41°31' W 070°40'0 0.0
2019-Oct-12 07:28N 41°31' W 070°40'0 0.0
2019-Oct-12 06:58N 41°31' W 070°40'0 0.0
2019-Oct-12 06:28N 41°31' W 070°40'0 0.0
2019-Oct-12 05:58N 41°31' W 070°40'0 0.0
2019-Oct-12 05:28N 41°31' W 070°40'0 0.0
2019-Oct-12 04:58N 41°31' W 070°40'0 0.0
2019-Oct-12 04:28N 41°31' W 070°40'0 0.0
2019-Oct-12 03:58N 41°31' W 070°40'0 0.0
2019-Oct-12 03:28N 41°31' W 070°40'0 0.0
2019-Oct-12 02:58N 41°31' W 070°40'0 0.0
2019-Oct-12 02:28N 41°31' W 070°40'0 0.0
2019-Oct-12 01:58N 41°31' W 070°40'0 0.0
2019-Oct-12 01:28N 41°31' W 070°40'0 0.0
2019-Oct-12 00:58N 41°31' W 070°40'0 0.0
2019-Oct-12 00:28N 41°31' W 070°40'0 0.0
2019-Oct-11 23:58N 41°31' W 070°40'0 0.0
2019-Oct-11 23:28N 41°31' W 070°40'0 0.0
2019-Oct-11 22:58N 41°31' W 070°40'0 0.0
2019-Oct-11 22:28N 41°31' W 070°40'0 0.0
2019-Oct-11 21:58N 41°31' W 070°40'0 0.0
2019-Oct-11 21:28N 41°31' W 070°40'0 0.0
2019-Oct-11 20:58N 41°31' W 070°40'0 0.0
2019-Oct-11 20:28N 41°31' W 070°40'0 0.0
2019-Oct-11 19:58N 41°31' W 070°40'0 0.0
2019-Oct-11 19:28N 41°31' W 070°40'0 0.0
2019-Oct-11 18:58N 41°31' W 070°40'0 0.0
2019-Oct-11 18:28N 41°31' W 070°40'0 0.0
2019-Oct-11 17:58N 41°31' W 070°40'0 0.0
2019-Oct-11 17:28N 41°31' W 070°40'0 0.0
2019-Oct-11 16:58N 41°31' W 070°40'0 0.0
2019-Oct-11 16:28N 41°31' W 070°40'0 0.0
2019-Oct-11 15:58N 41°31' W 070°40'0 0.0
2019-Oct-11 15:28N 41°31' W 070°40'0 0.0
2019-Oct-11 14:58N 41°31' W 070°40'0 0.0
2019-Oct-11 14:28N 41°31' W 070°40'0 0.0
2019-Oct-11 13:58N 41°31' W 070°40'0 0.0
2019-Oct-11 13:28N 41°31' W 070°40'0 0.0
2019-Oct-11 12:58N 41°31' W 070°40'0 0.0
2019-Oct-11 12:28N 41°31' W 070°40'0 0.0
2019-Oct-11 11:58N 41°31' W 070°40'0 0.0
2019-Oct-11 11:28N 41°31' W 070°40'0 0.0
2019-Oct-11 10:58N 41°31' W 070°40'0 0.0
2019-Oct-11 10:28N 41°31' W 070°40'0 0.0
2019-Oct-11 09:58N 41°31' W 070°40'0 0.0
2019-Oct-11 09:28N 41°31' W 070°40'0 0.0
2019-Oct-11 08:58N 41°31' W 070°40'0 0.0
2019-Oct-11 08:28N 41°31' W 070°40'0 0.0
2019-Oct-11 08:01N 41°31' W 070°40'0 0.0
2019-Oct-11 07:31N 41°31' W 070°40'0 0.0
2019-Oct-11 07:01N 41°31' W 070°40'0 0.0
2019-Oct-11 06:30N 41°31' W 070°40'0 0.0
2019-Oct-11 06:00N 41°31' W 070°40'0 0.0
2019-Oct-11 05:30N 41°31' W 070°40'0 0.0
2019-Oct-11 05:00N 41°31' W 070°40'0 0.0
2019-Oct-11 04:30N 41°31' W 070°40'0 0.0
2019-Oct-11 04:00N 41°31' W 070°40'0 0.0
2019-Oct-11 03:30N 41°31' W 070°40'0 0.0
2019-Oct-11 03:00N 41°31' W 070°40'0 0.0
2019-Oct-11 02:30N 41°31' W 070°40'0 0.0
2019-Oct-11 02:00N 41°31' W 070°40'0 0.0
2019-Oct-11 01:30N 41°31' W 070°40'0 0.0
2019-Oct-11 01:00N 41°31' W 070°40'0 0.0
2019-Oct-11 00:30N 41°31' W 070°40'0 0.0
2019-Oct-11 00:00N 41°31' W 070°40'0 0.0
2019-Oct-10 23:30N 41°31' W 070°40'0 0.0
2019-Oct-10 23:00N 41°31' W 070°40'0 0.0
2019-Oct-10 22:30N 41°31' W 070°40'0 0.0
2019-Oct-10 22:00N 41°31' W 070°40'0 0.0
2019-Oct-10 21:30N 41°31' W 070°40'0 0.0
2019-Oct-10 21:00N 41°31' W 070°40'0 0.0
2019-Oct-10 20:30N 41°31' W 070°40'0 0.0
2019-Oct-10 20:00N 41°31' W 070°40'0 0.0
2019-Oct-10 19:30N 41°31' W 070°40'0 0.0
2019-Oct-10 19:00N 41°31' W 070°40'0 0.0
2019-Oct-10 18:30N 41°31' W 070°40'0 0.0
2019-Oct-10 18:00N 41°31' W 070°40'0 0.0
2019-Oct-10 17:30N 41°31' W 070°40'0 0.0
2019-Oct-10 17:00N 41°31' W 070°40'0 0.0
2019-Oct-10 16:30N 41°31' W 070°40'0 0.0
2019-Oct-10 16:00N 41°31' W 070°40'0 0.0
2019-Oct-10 15:30N 41°31' W 070°40'0 0.0
2019-Oct-10 15:00N 41°31' W 070°40'0 0.0
2019-Oct-10 14:30N 41°31' W 070°40'0 0.0
2019-Oct-10 14:00N 41°31' W 070°40'0 0.0
2019-Oct-10 13:30N 41°31' W 070°40'0 0.0
2019-Oct-10 13:00N 41°31' W 070°40'0 0.0
2019-Oct-10 12:30N 41°31' W 070°40'0 0.0
2019-Oct-10 12:00N 41°31' W 070°40'0 0.0
2019-Oct-10 11:30N 41°31' W 070°40'0 0.0
2019-Oct-10 11:00N 41°31' W 070°40'0 0.0
2019-Oct-10 10:30N 41°31' W 070°40'0 0.0
2019-Oct-10 10:00N 41°31' W 070°40'0 0.0
2019-Oct-10 09:30N 41°31' W 070°40'0 0.0
2019-Oct-10 09:00N 41°31' W 070°40'0 0.0
2019-Oct-10 08:30N 41°31' W 070°40'0 0.0
2019-Oct-10 08:00N 41°31' W 070°40'0 0.0
2019-Oct-10 07:30N 41°31' W 070°40'0 0.0
2019-Oct-10 07:00N 41°31' W 070°40'0 0.0
2019-Oct-10 06:30N 41°31' W 070°40'0 0.0
2019-Oct-10 06:00N 41°31' W 070°40'0 0.0
2019-Oct-10 05:30N 41°31' W 070°40'0 0.0
2019-Oct-10 05:00N 41°31' W 070°40'0 0.0
2019-Oct-10 04:30N 41°31' W 070°40'0 0.0
2019-Oct-10 04:00N 41°31' W 070°40'0 0.0
2019-Oct-10 03:30N 41°31' W 070°40'0 0.0
2019-Oct-10 03:00N 41°31' W 070°40'0 0.0
2019-Oct-10 02:30N 41°31' W 070°40'0 0.0
2019-Oct-10 02:00N 41°31' W 070°40'0 0.0
2019-Oct-10 01:30N 41°31' W 070°40'0 0.0
2019-Oct-10 01:00N 41°31' W 070°40'0 0.0
2019-Oct-10 00:30N 41°31' W 070°40'0 0.0
2019-Oct-10 00:00N 41°31' W 070°40'0 0.0
2019-Oct-09 23:30N 41°31' W 070°40'0 0.0
2019-Oct-09 22:59N 41°31' W 070°40'0 0.0
2019-Oct-09 22:29N 41°31' W 070°40'0 0.0
2019-Oct-09 21:59N 41°31' W 070°40'0 0.0
2019-Oct-09 21:29N 41°31' W 070°40'0 0.0
2019-Oct-09 20:59N 41°31' W 070°40'0 0.0
2019-Oct-09 20:29N 41°31' W 070°40'0 0.0
2019-Oct-09 19:59N 41°31' W 070°40'0 0.0
2019-Oct-09 19:29N 41°31' W 070°40'0 0.0
2019-Oct-09 18:59N 41°31' W 070°40'0 0.0
2019-Oct-09 18:29N 41°31' W 070°40'0 0.0
2019-Oct-09 17:59N 41°31' W 070°40'0 0.0
2019-Oct-09 17:29N 41°31' W 070°40'0 0.0
2019-Oct-09 16:59N 41°31' W 070°40'0 0.0
2019-Oct-09 16:29N 41°31' W 070°40'0 0.0
2019-Oct-09 15:59N 41°31' W 070°40'0 0.0
2019-Oct-09 15:29N 41°31' W 070°40'0 0.0
2019-Oct-09 14:59N 41°31' W 070°40'0 0.0
2019-Oct-09 14:29N 41°31' W 070°40'0 0.0
2019-Oct-09 13:59N 41°31' W 070°40'0 0.0
2019-Oct-09 13:29N 41°31' W 070°40'0 0.0
2019-Oct-09 12:59N 41°31' W 070°40'0 0.0
2019-Oct-09 12:29N 41°31' W 070°40'0 0.0
2019-Oct-09 11:59N 41°31' W 070°40'0 0.0
2019-Oct-09 11:29N 41°31' W 070°40'0 0.0
2019-Oct-09 10:59N 41°31' W 070°40'0 0.0
2019-Oct-09 10:29N 41°31' W 070°40'0 0.0
2019-Oct-09 09:59N 41°31' W 070°40'0 0.0
2019-Oct-09 09:29N 41°31' W 070°40'0 0.0
2019-Oct-09 08:59N 41°31' W 070°40'0 0.0
2019-Oct-09 08:29N 41°31' W 070°40'0 0.0
2019-Oct-09 07:59N 41°31' W 070°40'0 0.0
2019-Oct-09 07:29N 41°31' W 070°40'0 0.0
2019-Oct-09 06:59N 41°31' W 070°40'0 0.0
2019-Oct-09 06:29N 41°31' W 070°40'0 0.0
2019-Oct-09 05:59N 41°31' W 070°40'0 0.0
2019-Oct-09 05:29N 41°31' W 070°40'0 0.0
2019-Oct-09 04:59N 41°31' W 070°40'0 0.0
2019-Oct-09 04:29N 41°31' W 070°40'0 0.0
2019-Oct-09 03:59N 41°31' W 070°40'0 0.0
2019-Oct-09 03:29N 41°31' W 070°40'0 0.0
2019-Oct-09 02:59N 41°31' W 070°40'0 0.0
2019-Oct-09 02:29N 41°31' W 070°40'0 0.0
2019-Oct-09 01:59N 41°31' W 070°40'0 0.0
2019-Oct-09 01:29N 41°31' W 070°40'0 0.0
2019-Oct-09 00:59N 41°31' W 070°40'0 0.0
2019-Oct-09 00:29N 41°31' W 070°40'0 0.0
2019-Oct-08 23:59N 41°31' W 070°40'0 0.0
2019-Oct-08 23:29N 41°31' W 070°40'0 0.0
2019-Oct-08 22:59N 41°31' W 070°40'0 0.0
2019-Oct-08 22:29N 41°31' W 070°40'0 0.0
2019-Oct-08 21:59N 41°31' W 070°40'0 0.0
2019-Oct-08 21:29N 41°31' W 070°40'0 0.0
2019-Oct-08 20:59N 41°31' W 070°40'0 0.0
2019-Oct-08 20:29N 41°31' W 070°40'0 0.0
2019-Oct-08 19:59N 41°31' W 070°40'0 0.0
2019-Oct-08 19:29N 41°31' W 070°40'0 0.0
2019-Oct-08 18:59N 41°31' W 070°40'0 0.0
2019-Oct-08 18:29N 41°31' W 070°40'0 0.0
2019-Oct-08 17:59N 41°31' W 070°40'0 0.0
2019-Oct-08 17:29N 41°31' W 070°40'0 0.0
2019-Oct-08 16:59N 41°31' W 070°40'0 0.0
2019-Oct-08 16:29N 41°31' W 070°40'0 0.0
2019-Oct-08 15:59N 41°31' W 070°40'0 0.0
2019-Oct-08 15:29N 41°31' W 070°40'0 0.0
2019-Oct-08 14:58N 41°31' W 070°40'0 0.0
2019-Oct-08 14:28N 41°31' W 070°40'0 0.0
2019-Oct-08 13:58N 41°31' W 070°40'0 0.0
2019-Oct-08 13:28N 41°31' W 070°40'0 0.0
2019-Oct-08 12:58N 41°31' W 070°40'0 0.0
2019-Oct-08 12:28N 41°31' W 070°40'0 0.0
2019-Oct-08 11:58N 41°31' W 070°40'0 0.0
2019-Oct-08 11:28N 41°31' W 070°40'0 0.0
2019-Oct-08 10:58N 41°31' W 070°40'0 0.0
2019-Oct-08 10:28N 41°31' W 070°40'0 0.0
2019-Oct-08 09:58N 41°31' W 070°40'0 0.0
2019-Oct-08 09:28N 41°31' W 070°40'0 0.0
2019-Oct-08 08:58N 41°31' W 070°40'0 0.0
2019-Oct-08 08:28N 41°31' W 070°40'0 0.0
2019-Oct-08 07:58N 41°31' W 070°40'0 0.0
2019-Oct-08 07:28N 41°31' W 070°40'0 0.0
2019-Oct-08 06:58N 41°31' W 070°40'0 0.0
2019-Oct-08 06:28N 41°31' W 070°40'0 0.0
2019-Oct-08 05:58N 41°31' W 070°40'0 0.0
2019-Oct-08 05:28N 41°31' W 070°40'0 0.0
2019-Oct-08 04:58N 41°31' W 070°40'0 0.0
2019-Oct-08 04:28N 41°31' W 070°40'0 0.0
2019-Oct-08 03:58N 41°31' W 070°40'0 0.0
2019-Oct-08 03:28N 41°31' W 070°40'0 0.0
2019-Oct-08 02:58N 41°31' W 070°40'0 0.0
2019-Oct-08 02:28N 41°31' W 070°40'0 0.0
2019-Oct-08 01:58N 41°31' W 070°40'0 0.0
2019-Oct-08 01:28N 41°31' W 070°40'0 0.0
2019-Oct-08 00:58N 41°31' W 070°40'0 0.0
2019-Oct-08 00:28N 41°31' W 070°40'0 0.0
2019-Oct-07 23:58N 41°31' W 070°40'0 0.0
2019-Oct-07 23:28N 41°31' W 070°40'0 0.0
2019-Oct-07 22:58N 41°31' W 070°40'0 0.0
2019-Oct-07 22:28N 41°31' W 070°40'0 0.0
2019-Oct-07 21:58N 41°31' W 070°40'0 0.0
2019-Oct-07 21:28N 41°31' W 070°40'0 0.0
2019-Oct-07 20:58N 41°31' W 070°40'0 0.0
2019-Oct-07 20:28N 41°31' W 070°40'0 0.0
2019-Oct-07 19:58N 41°31' W 070°40'0 0.0
2019-Oct-07 19:28N 41°31' W 070°40'0 0.0
2019-Oct-07 18:58N 41°31' W 070°40'0 0.0
2019-Oct-07 18:28N 41°31' W 070°40'0 0.0
2019-Oct-07 17:58N 41°31' W 070°40'0 0.0
2019-Oct-07 17:28N 41°31' W 070°40'0 0.0
2019-Oct-07 16:58N 41°31' W 070°40'0 0.0
2019-Oct-07 16:28N 41°31' W 070°40'0 0.0
2019-Oct-07 15:58N 41°31' W 070°40'0 0.0
2019-Oct-07 15:28N 41°31' W 070°40'0 0.0
2019-Oct-07 14:58N 41°31' W 070°40'0 0.0
2019-Oct-07 14:28N 41°31' W 070°40'0 0.0
2019-Oct-07 13:58N 41°31' W 070°40'0 0.0
2019-Oct-07 13:28N 41°31' W 070°40'0 0.0
2019-Oct-07 12:58N 41°31' W 070°40'0 0.0
2019-Oct-07 12:28N 41°31' W 070°40'0 0.0
2019-Oct-07 11:58N 41°31' W 070°40'  

Dump ship's entire track history